Accueil
METAR-TAF:

METAR-TAF

Aéroports :

Aéroport international de Bilbao

Bilbao, Espagne

latitude: 43-18N, longitude: 002-56W, altitude: 42 m

Observation

Le bulletin a été fait il y a 17 minutes, à 08:00 UTC
Vent 7 kt de est, variant entre est/nord-est et sud-est
Température 19°C
Humidité 64%
Pression 1019 hPa
Visibilité 10 km ou plus
pas de nuages en-dessous de 1500 mètres et pas de cumulonimbus.

METAR: LEBB 090800Z 10007KT 070V130 CAVOK 19/12 Q1019 NOSIG

Heure: 10:17 (08:17 UTC)

Prévision

Le bulletin a été fait il y a 3 heures et 17 minutes, à 05:00 UTC
Prévision valable du 09 à 06 UTC au 10 à 06 UTC
Vent 8 kt de est/sud-est
Visibilité 10 km ou plus
Quelques nuages à une hauteur de 3000 ft
Probabilité 30% :
Temporairement
du 09 à 15 UTC au 09 à 18 UTC
Nuages épars à une hauteur de 2500 ft, Cumulonimbus.
averses de pluie, orage

TAF: LEBB 090500Z 0906/1006 12008KT 9999 FEW030 TX25/0914Z TN12/0906Z PROB30 TEMPO 0915/0918 SHRA TS SCT025CB

Observations et prévisions météorologiques de plus de 4000 aéroports (messages METAR et TAF).

Les stations disponibles sont représentées par des disques jaunes et rouges sur la carte.

Passer la souris dessus pour voir le nom de la station.

Cliquer dessus pour voir les observations et prévisions météorologiques.

Pour changer de carte: cliquez sur les boutons verts avec une croix noire pour zoomer, sur le bouton vert avec un tiret pour effectuer un zoom arrière, ou sur les flèches vertes pour les cartes adjacentes.


METAR-TAF: